sensor_id;sensor_type;location;lat;lon;timestamp;P1;durP1;ratioP1;P2;durP2;ratioP2
43086;SDS011;28708;52.224;6.924;2023-04-07T00:00:00;34.57;;;25.97;;
43086;SDS011;28708;52.224;6.924;2023-04-07T00:02:36;33.63;;;25.73;;
43086;SDS011;28708;52.224;6.924;2023-04-07T00:05:02;35.37;;;26.43;;
43086;SDS011;28708;52.224;6.924;2023-04-07T00:07:28;36.80;;;27.27;;
43086;SDS011;28708;52.224;6.924;2023-04-07T00:09:53;36.33;;;27.80;;
43086;SDS011;28708;52.224;6.924;2023-04-07T00:12:19;35.17;;;27.37;;
43086;SDS011;28708;52.224;6.924;2023-04-07T00:14:45;34.77;;;26.03;;
43086;SDS011;28708;52.224;6.924;2023-04-07T00:17:10;36.33;;;27.67;;
43086;SDS011;28708;52.224;6.924;2023-04-07T00:19:36;38.73;;;27.53;;
43086;SDS011;28708;52.224;6.924;2023-04-07T00:22:02;37.63;;;26.77;;
43086;SDS011;28708;52.224;6.924;2023-04-07T00:24:27;35.10;;;26.03;;
43086;SDS011;28708;52.224;6.924;2023-04-07T00:26:53;35.33;;;27.40;;
43086;SDS011;28708;52.224;6.924;2023-04-07T00:29:19;35.63;;;27.50;;
43086;SDS011;28708;52.224;6.924;2023-04-07T00:31:44;36.40;;;27.33;;
43086;SDS011;28708;52.224;6.924;2023-04-07T00:34:10;35.63;;;28.37;;
43086;SDS011;28708;52.224;6.924;2023-04-07T00:36:36;35.60;;;27.83;;
43086;SDS011;28708;52.224;6.924;2023-04-07T00:39:01;40.13;;;28.03;;
43086;SDS011;28708;52.224;6.924;2023-04-07T00:41:27;36.60;;;28.17;;
43086;SDS011;28708;52.224;6.924;2023-04-07T00:43:53;36.33;;;27.43;;
43086;SDS011;28708;52.224;6.924;2023-04-07T00:46:18;40.57;;;27.93;;
43086;SDS011;28708;52.224;6.924;2023-04-07T00:48:47;37.17;;;27.80;;
43086;SDS011;28708;52.224;6.924;2023-04-07T00:51:12;34.43;;;27.67;;
43086;SDS011;28708;52.224;6.924;2023-04-07T00:53:39;38.93;;;28.87;;
43086;SDS011;28708;52.224;6.924;2023-04-07T00:56:05;36.60;;;27.73;;
43086;SDS011;28708;52.224;6.924;2023-04-07T00:58:30;37.37;;;27.93;;
43086;SDS011;28708;52.224;6.924;2023-04-07T01:03:33;34.55;;;25.63;;
43086;SDS011;28708;52.224;6.924;2023-04-07T01:06:11;32.83;;;25.60;;
43086;SDS011;28708;52.224;6.924;2023-04-07T01:08:49;34.80;;;26.97;;
43086;SDS011;28708;52.224;6.924;2023-04-07T01:11:36;35.13;;;25.73;;
43086;SDS011;28708;52.224;6.924;2023-04-07T01:14:20;34.80;;;26.57;;
43086;SDS011;28708;52.224;6.924;2023-04-07T01:16:56;33.17;;;25.53;;
43086;SDS011;28708;52.224;6.924;2023-04-07T01:22:42;32.90;;;26.30;;
43086;SDS011;28708;52.224;6.924;2023-04-07T01:25:21;33.37;;;26.97;;
43086;SDS011;28708;52.224;6.924;2023-04-07T01:28:27;36.27;;;26.57;;
43086;SDS011;28708;52.224;6.924;2023-04-07T01:31:05;33.30;;;26.15;;
43086;SDS011;28708;52.224;6.924;2023-04-07T01:33:34;35.83;;;27.27;;
43086;SDS011;28708;52.224;6.924;2023-04-07T01:36:02;40.03;;;27.73;;
43086;SDS011;28708;52.224;6.924;2023-04-07T01:38:30;37.23;;;27.73;;
43086;SDS011;28708;52.224;6.924;2023-04-07T01:40:58;37.00;;;27.37;;
43086;SDS011;28708;52.224;6.924;2023-04-07T01:43:25;37.13;;;27.77;;
43086;SDS011;28708;52.224;6.924;2023-04-07T01:45:53;37.50;;;27.93;;
43086;SDS011;28708;52.224;6.924;2023-04-07T01:48:21;34.57;;;26.87;;
43086;SDS011;28708;52.224;6.924;2023-04-07T01:50:47;33.47;;;26.03;;
43086;SDS011;28708;52.224;6.924;2023-04-07T01:53:14;38.27;;;27.37;;
43086;SDS011;28708;52.224;6.924;2023-04-07T01:55:41;37.60;;;27.00;;
43086;SDS011;28708;52.224;6.924;2023-04-07T01:58:08;29.57;;;23.70;;
43086;SDS011;28708;52.224;6.924;2023-04-07T02:00:36;36.20;;;26.03;;
43086;SDS011;28708;52.224;6.924;2023-04-07T02:03:10;35.50;;;26.30;;
43086;SDS011;28708;52.224;6.924;2023-04-07T02:05:51;32.93;;;24.40;;
43086;SDS011;28708;52.224;6.924;2023-04-07T02:08:23;33.70;;;25.47;;
43086;SDS011;28708;52.224;6.924;2023-04-07T02:13:21;34.07;;;25.53;;
43086;SDS011;28708;52.224;6.924;2023-04-07T02:15:49;29.93;;;23.33;;
43086;SDS011;28708;52.224;6.924;2023-04-07T02:18:18;32.30;;;24.27;;
43086;SDS011;28708;52.224;6.924;2023-04-07T02:20:44;31.63;;;25.10;;
43086;SDS011;28708;52.224;6.924;2023-04-07T02:23:12;30.97;;;24.17;;
43086;SDS011;28708;52.224;6.924;2023-04-07T02:25:37;32.63;;;23.97;;
43086;SDS011;28708;52.224;6.924;2023-04-07T02:28:03;32.77;;;24.63;;
43086;SDS011;28708;52.224;6.924;2023-04-07T02:30:31;32.83;;;24.67;;
43086;SDS011;28708;52.224;6.924;2023-04-07T02:32:57;34.00;;;23.63;;
43086;SDS011;28708;52.224;6.924;2023-04-07T02:35:23;31.23;;;22.73;;
43086;SDS011;28708;52.224;6.924;2023-04-07T02:37:49;28.40;;;22.87;;
43086;SDS011;28708;52.224;6.924;2023-04-07T02:40:15;31.40;;;23.80;;
43086;SDS011;28708;52.224;6.924;2023-04-07T02:42:41;31.80;;;24.30;;
43086;SDS011;28708;52.224;6.924;2023-04-07T02:45:07;34.53;;;24.27;;
43086;SDS011;28708;52.224;6.924;2023-04-07T02:47:35;27.77;;;22.17;;
43086;SDS011;28708;52.224;6.924;2023-04-07T02:50:02;34.03;;;23.67;;
43086;SDS011;28708;52.224;6.924;2023-04-07T02:52:28;31.43;;;24.40;;
43086;SDS011;28708;52.224;6.924;2023-04-07T02:54:53;34.70;;;25.40;;
43086;SDS011;28708;52.224;6.924;2023-04-07T02:57:23;30.08;;;23.42;;
43086;SDS011;28708;52.224;6.924;2023-04-07T02:59:51;28.53;;;23.17;;
43086;SDS011;28708;52.224;6.924;2023-04-07T03:02:19;28.83;;;22.50;;
43086;SDS011;28708;52.224;6.924;2023-04-07T03:04:45;31.90;;;23.97;;
43086;SDS011;28708;52.224;6.924;2023-04-07T03:07:11;32.00;;;24.17;;
43086;SDS011;28708;52.224;6.924;2023-04-07T03:09:36;30.90;;;23.43;;
43086;SDS011;28708;52.224;6.924;2023-04-07T03:12:02;31.93;;;24.57;;
43086;SDS011;28708;52.224;6.924;2023-04-07T03:14:32;29.85;;;23.33;;
43086;SDS011;28708;52.224;6.924;2023-04-07T03:16:59;32.77;;;23.27;;
43086;SDS011;28708;52.224;6.924;2023-04-07T03:19:25;28.93;;;22.80;;
43086;SDS011;28708;52.224;6.924;2023-04-07T03:21:51;30.50;;;22.87;;
43086;SDS011;28708;52.224;6.924;2023-04-07T03:24:17;32.90;;;24.13;;
43086;SDS011;28708;52.224;6.924;2023-04-07T03:26:44;30.10;;;23.63;;
43086;SDS011;28708;52.224;6.924;2023-04-07T03:29:20;29.23;;;22.07;;
43086;SDS011;28708;52.224;6.924;2023-04-07T03:31:46;30.63;;;22.80;;
43086;SDS011;28708;52.224;6.924;2023-04-07T03:34:14;32.10;;;22.80;;
43086;SDS011;28708;52.224;6.924;2023-04-07T03:36:40;29.03;;;22.10;;
43086;SDS011;28708;52.224;6.924;2023-04-07T03:39:05;28.27;;;21.57;;
43086;SDS011;28708;52.224;6.924;2023-04-07T03:41:31;30.80;;;22.70;;
43086;SDS011;28708;52.224;6.924;2023-04-07T03:43:57;30.47;;;22.53;;
43086;SDS011;28708;52.224;6.924;2023-04-07T03:46:23;33.70;;;24.93;;
43086;SDS011;28708;52.224;6.924;2023-04-07T03:48:51;31.83;;;23.03;;
43086;SDS011;28708;52.224;6.924;2023-04-07T03:51:19;34.23;;;24.17;;
43086;SDS011;28708;52.224;6.924;2023-04-07T03:53:46;32.87;;;24.33;;
43086;SDS011;28708;52.224;6.924;2023-04-07T03:56:24;34.03;;;24.20;;
43086;SDS011;28708;52.224;6.924;2023-04-07T03:58:49;34.07;;;24.60;;
43086;SDS011;28708;52.224;6.924;2023-04-07T04:01:23;34.27;;;24.23;;
43086;SDS011;28708;52.224;6.924;2023-04-07T04:03:49;33.57;;;23.67;;
43086;SDS011;28708;52.224;6.924;2023-04-07T04:06:33;32.07;;;23.70;;
43086;SDS011;28708;52.224;6.924;2023-04-07T04:09:08;29.10;;;21.80;;
43086;SDS011;28708;52.224;6.924;2023-04-07T04:14:04;30.20;;;22.70;;
43086;SDS011;28708;52.224;6.924;2023-04-07T04:16:32;32.03;;;24.30;;
43086;SDS011;28708;52.224;6.924;2023-04-07T04:19:03;33.33;;;23.40;;
43086;SDS011;28708;52.224;6.924;2023-04-07T04:21:29;35.60;;;24.77;;
43086;SDS011;28708;52.224;6.924;2023-04-07T04:23:55;28.17;;;22.57;;
43086;SDS011;28708;52.224;6.924;2023-04-07T04:26:21;30.77;;;23.17;;
43086;SDS011;28708;52.224;6.924;2023-04-07T04:28:51;31.42;;;23.85;;
43086;SDS011;28708;52.224;6.924;2023-04-07T04:31:19;33.37;;;24.77;;
43086;SDS011;28708;52.224;6.924;2023-04-07T04:33:45;35.17;;;26.00;;
43086;SDS011;28708;52.224;6.924;2023-04-07T04:36:11;35.27;;;25.93;;
43086;SDS011;28708;52.224;6.924;2023-04-07T04:38:38;33.07;;;24.60;;
43086;SDS011;28708;52.224;6.924;2023-04-07T04:41:11;37.80;;;26.73;;
43086;SDS011;28708;52.224;6.924;2023-04-07T04:43:37;37.13;;;27.00;;
43086;SDS011;28708;52.224;6.924;2023-04-07T04:46:04;36.03;;;25.83;;
43086;SDS011;28708;52.224;6.924;2023-04-07T04:48:35;36.97;;;28.07;;
43086;SDS011;28708;52.224;6.924;2023-04-07T04:51:03;39.10;;;26.43;;
43086;SDS011;28708;52.224;6.924;2023-04-07T04:53:29;39.60;;;27.57;;
43086;SDS011;28708;52.224;6.924;2023-04-07T04:55:58;36.40;;;26.60;;
43086;SDS011;28708;52.224;6.924;2023-04-07T04:58:45;36.27;;;26.87;;
43086;SDS011;28708;52.224;6.924;2023-04-07T05:01:16;38.23;;;27.47;;
43086;SDS011;28708;52.224;6.924;2023-04-07T05:03:49;38.53;;;26.90;;
43086;SDS011;28708;52.224;6.924;2023-04-07T05:06:20;42.83;;;29.27;;
43086;SDS011;28708;52.224;6.924;2023-04-07T05:08:48;38.30;;;27.47;;
43086;SDS011;28708;52.224;6.924;2023-04-07T05:11:17;37.70;;;25.63;;
43086;SDS011;28708;52.224;6.924;2023-04-07T05:13:47;39.90;;;26.85;;
43086;SDS011;28708;52.224;6.924;2023-04-07T05:16:13;36.67;;;26.00;;
43086;SDS011;28708;52.224;6.924;2023-04-07T05:18:39;32.47;;;24.47;;
43086;SDS011;28708;52.224;6.924;2023-04-07T05:21:05;36.10;;;26.30;;
43086;SDS011;28708;52.224;6.924;2023-04-07T05:23:34;40.87;;;27.07;;
43086;SDS011;28708;52.224;6.924;2023-04-07T05:26:00;38.50;;;27.43;;
43086;SDS011;28708;52.224;6.924;2023-04-07T05:28:26;38.90;;;25.87;;
43086;SDS011;28708;52.224;6.924;2023-04-07T05:30:55;42.87;;;27.30;;
43086;SDS011;28708;52.224;6.924;2023-04-07T05:33:26;39.37;;;27.37;;
43086;SDS011;28708;52.224;6.924;2023-04-07T05:35:52;39.73;;;26.43;;
43086;SDS011;28708;52.224;6.924;2023-04-07T05:38:18;42.70;;;27.50;;
43086;SDS011;28708;52.224;6.924;2023-04-07T05:40:45;38.87;;;27.33;;
43086;SDS011;28708;52.224;6.924;2023-04-07T05:43:17;43.43;;;29.40;;
43086;SDS011;28708;52.224;6.924;2023-04-07T05:45:43;39.63;;;26.60;;
43086;SDS011;28708;52.224;6.924;2023-04-07T05:48:09;41.17;;;27.63;;
43086;SDS011;28708;52.224;6.924;2023-04-07T05:50:40;41.13;;;27.00;;
43086;SDS011;28708;52.224;6.924;2023-04-07T05:53:10;34.92;;;25.75;;
43086;SDS011;28708;52.224;6.924;2023-04-07T05:55:35;37.33;;;25.80;;
43086;SDS011;28708;52.224;6.924;2023-04-07T05:58:02;33.33;;;23.87;;
43086;SDS011;28708;52.224;6.924;2023-04-07T06:00:30;26.37;;;19.80;;
43086;SDS011;28708;52.224;6.924;2023-04-07T06:03:02;27.90;;;21.43;;
43086;SDS011;28708;52.224;6.924;2023-04-07T06:05:33;29.43;;;21.67;;
43086;SDS011;28708;52.224;6.924;2023-04-07T06:08:00;29.03;;;21.40;;
43086;SDS011;28708;52.224;6.924;2023-04-07T06:10:27;27.70;;;21.07;;
43086;SDS011;28708;52.224;6.924;2023-04-07T06:12:53;30.73;;;21.50;;
43086;SDS011;28708;52.224;6.924;2023-04-07T06:15:19;29.20;;;21.50;;
43086;SDS011;28708;52.224;6.924;2023-04-07T06:17:45;25.60;;;19.60;;
43086;SDS011;28708;52.224;6.924;2023-04-07T06:20:10;31.47;;;22.57;;
43086;SDS011;28708;52.224;6.924;2023-04-07T06:22:36;31.53;;;21.60;;
43086;SDS011;28708;52.224;6.924;2023-04-07T06:25:02;27.40;;;21.27;;
43086;SDS011;28708;52.224;6.924;2023-04-07T06:27:30;25.23;;;19.43;;
43086;SDS011;28708;52.224;6.924;2023-04-07T06:29:57;26.80;;;20.30;;
43086;SDS011;28708;52.224;6.924;2023-04-07T06:32:22;26.73;;;19.70;;
43086;SDS011;28708;52.224;6.924;2023-04-07T06:34:49;31.50;;;24.63;;
43086;SDS011;28708;52.224;6.924;2023-04-07T06:37:15;25.33;;;19.57;;
43086;SDS011;28708;52.224;6.924;2023-04-07T06:39:41;23.10;;;18.17;;
43086;SDS011;28708;52.224;6.924;2023-04-07T06:42:06;23.10;;;18.07;;
43086;SDS011;28708;52.224;6.924;2023-04-07T06:44:37;24.60;;;18.20;;
43086;SDS011;28708;52.224;6.924;2023-04-07T06:47:02;24.33;;;18.13;;
43086;SDS011;28708;52.224;6.924;2023-04-07T06:49:28;20.03;;;16.27;;
43086;SDS011;28708;52.224;6.924;2023-04-07T06:51:54;20.33;;;14.90;;
43086;SDS011;28708;52.224;6.924;2023-04-07T06:54:19;19.17;;;15.03;;
43086;SDS011;28708;52.224;6.924;2023-04-07T06:56:45;20.60;;;16.33;;
43086;SDS011;28708;52.224;6.924;2023-04-07T06:59:11;19.20;;;14.90;;
43086;SDS011;28708;52.224;6.924;2023-04-07T07:01:36;19.70;;;15.30;;
43086;SDS011;28708;52.224;6.924;2023-04-07T07:04:02;22.43;;;18.03;;
43086;SDS011;28708;52.224;6.924;2023-04-07T07:06:29;19.37;;;15.17;;
43086;SDS011;28708;52.224;6.924;2023-04-07T07:08:56;18.77;;;14.83;;
43086;SDS011;28708;52.224;6.924;2023-04-07T07:11:21;17.60;;;14.50;;
43086;SDS011;28708;52.224;6.924;2023-04-07T07:13:47;23.37;;;17.50;;
43086;SDS011;28708;52.224;6.924;2023-04-07T07:16:13;32.63;;;23.77;;
43086;SDS011;28708;52.224;6.924;2023-04-07T07:18:38;24.23;;;18.30;;
43086;SDS011;28708;52.224;6.924;2023-04-07T07:21:04;23.90;;;18.03;;
43086;SDS011;28708;52.224;6.924;2023-04-07T07:23:30;27.67;;;20.97;;
43086;SDS011;28708;52.224;6.924;2023-04-07T07:25:55;23.83;;;17.53;;
43086;SDS011;28708;52.224;6.924;2023-04-07T07:28:21;27.80;;;20.23;;
43086;SDS011;28708;52.224;6.924;2023-04-07T07:30:48;23.20;;;16.70;;
43086;SDS011;28708;52.224;6.924;2023-04-07T07:33:13;40.40;;;26.33;;
43086;SDS011;28708;52.224;6.924;2023-04-07T07:35:39;25.00;;;18.30;;
43086;SDS011;28708;52.224;6.924;2023-04-07T07:38:05;25.63;;;17.67;;
43086;SDS011;28708;52.224;6.924;2023-04-07T07:40:31;29.13;;;20.30;;
43086;SDS011;28708;52.224;6.924;2023-04-07T07:42:57;30.17;;;19.53;;
43086;SDS011;28708;52.224;6.924;2023-04-07T07:45:22;20.80;;;16.70;;
43086;SDS011;28708;52.224;6.924;2023-04-07T07:47:48;24.20;;;17.03;;
43086;SDS011;28708;52.224;6.924;2023-04-07T07:50:14;23.10;;;15.97;;
43086;SDS011;28708;52.224;6.924;2023-04-07T07:52:40;21.33;;;16.27;;
43086;SDS011;28708;52.224;6.924;2023-04-07T07:55:06;20.30;;;15.17;;
43086;SDS011;28708;52.224;6.924;2023-04-07T07:57:31;22.87;;;16.03;;
43086;SDS011;28708;52.224;6.924;2023-04-07T07:59:57;23.23;;;16.87;;
43086;SDS011;28708;52.224;6.924;2023-04-07T08:02:23;19.93;;;15.70;;
43086;SDS011;28708;52.224;6.924;2023-04-07T08:04:54;22.83;;;16.53;;
43086;SDS011;28708;52.224;6.924;2023-04-07T08:07:20;26.87;;;18.17;;
43086;SDS011;28708;52.224;6.924;2023-04-07T08:09:46;25.17;;;17.13;;
43086;SDS011;28708;52.224;6.924;2023-04-07T08:12:12;25.23;;;17.20;;
43086;SDS011;28708;52.224;6.924;2023-04-07T08:14:38;23.93;;;16.93;;
43086;SDS011;28708;52.224;6.924;2023-04-07T08:17:03;20.93;;;15.60;;
43086;SDS011;28708;52.224;6.924;2023-04-07T08:19:29;26.03;;;15.83;;
43086;SDS011;28708;52.224;6.924;2023-04-07T08:21:55;24.17;;;16.50;;
43086;SDS011;28708;52.224;6.924;2023-04-07T08:24:20;23.23;;;14.83;;
43086;SDS011;28708;52.224;6.924;2023-04-07T08:26:46;21.17;;;14.70;;
43086;SDS011;28708;52.224;6.924;2023-04-07T08:29:12;22.03;;;15.27;;
43086;SDS011;28708;52.224;6.924;2023-04-07T08:31:37;21.30;;;14.43;;
43086;SDS011;28708;52.224;6.924;2023-04-07T08:34:03;21.03;;;14.10;;
43086;SDS011;28708;52.224;6.924;2023-04-07T08:36:29;21.17;;;14.07;;
43086;SDS011;28708;52.224;6.924;2023-04-07T08:38:55;18.30;;;13.40;;
43086;SDS011;28708;52.224;6.924;2023-04-07T08:41:29;18.00;;;13.10;;
43086;SDS011;28708;52.224;6.924;2023-04-07T08:44:00;18.03;;;13.43;;
43086;SDS011;28708;52.224;6.924;2023-04-07T08:46:27;17.63;;;12.90;;
43086;SDS011;28708;52.224;6.924;2023-04-07T08:48:54;19.70;;;13.93;;
43086;SDS011;28708;52.224;6.924;2023-04-07T08:51:30;17.07;;;12.47;;
43086;SDS011;28708;52.224;6.924;2023-04-07T08:54:00;18.00;;;12.50;;
43086;SDS011;28708;52.224;6.924;2023-04-07T08:56:33;15.90;;;11.70;;
43086;SDS011;28708;52.224;6.924;2023-04-07T08:59:01;15.97;;;10.73;;
43086;SDS011;28708;52.224;6.924;2023-04-07T09:01:28;15.83;;;11.60;;
43086;SDS011;28708;52.224;6.924;2023-04-07T09:03:55;14.47;;;10.77;;
43086;SDS011;28708;52.224;6.924;2023-04-07T09:06:24;15.57;;;10.55;;
43086;SDS011;28708;52.224;6.924;2023-04-07T09:08:51;14.83;;;10.50;;
43086;SDS011;28708;52.224;6.924;2023-04-07T09:11:16;12.80;;;9.50;;
43086;SDS011;28708;52.224;6.924;2023-04-07T09:13:42;14.00;;;10.40;;
43086;SDS011;28708;52.224;6.924;2023-04-07T09:16:08;12.07;;;9.50;;
43086;SDS011;28708;52.224;6.924;2023-04-07T09:18:33;10.47;;;7.90;;
43086;SDS011;28708;52.224;6.924;2023-04-07T09:21:00;11.73;;;8.90;;
43086;SDS011;28708;52.224;6.924;2023-04-07T09:26:17;11.93;;;9.23;;
43086;SDS011;28708;52.224;6.924;2023-04-07T09:28:57;11.43;;;8.70;;
43086;SDS011;28708;52.224;6.924;2023-04-07T09:31:43;11.53;;;8.73;;
43086;SDS011;28708;52.224;6.924;2023-04-07T09:34:24;10.17;;;8.37;;
43086;SDS011;28708;52.224;6.924;2023-04-07T09:36:52;14.73;;;11.07;;
43086;SDS011;28708;52.224;6.924;2023-04-07T09:39:18;17.97;;;13.00;;
43086;SDS011;28708;52.224;6.924;2023-04-07T09:41:44;9.60;;;6.77;;
43086;SDS011;28708;52.224;6.924;2023-04-07T09:44:10;9.10;;;7.20;;
43086;SDS011;28708;52.224;6.924;2023-04-07T09:46:35;10.30;;;7.53;;
43086;SDS011;28708;52.224;6.924;2023-04-07T09:49:20;12.27;;;7.90;;
43086;SDS011;28708;52.224;6.924;2023-04-07T09:52:01;9.43;;;7.30;;
43086;SDS011;28708;52.224;6.924;2023-04-07T09:57:02;8.75;;;7.18;;
43086;SDS011;28708;52.224;6.924;2023-04-07T09:59:29;9.97;;;7.33;;
43086;SDS011;28708;52.224;6.924;2023-04-07T10:01:56;10.47;;;7.07;;
43086;SDS011;28708;52.224;6.924;2023-04-07T10:04:25;9.10;;;6.70;;
43086;SDS011;28708;52.224;6.924;2023-04-07T10:06:55;10.02;;;6.43;;
43086;SDS011;28708;52.224;6.924;2023-04-07T10:09:22;8.52;;;6.43;;
43086;SDS011;28708;52.224;6.924;2023-04-07T10:11:49;10.77;;;7.40;;
43086;SDS011;28708;52.224;6.924;2023-04-07T10:14:16;8.57;;;6.73;;
43086;SDS011;28708;52.224;6.924;2023-04-07T10:16:43;9.40;;;7.00;;
43086;SDS011;28708;52.224;6.924;2023-04-07T10:19:11;8.90;;;6.80;;
43086;SDS011;28708;52.224;6.924;2023-04-07T10:21:38;10.27;;;7.20;;
43086;SDS011;28708;52.224;6.924;2023-04-07T10:26:52;7.27;;;5.87;;
43086;SDS011;28708;52.224;6.924;2023-04-07T10:29:21;7.03;;;5.60;;
43086;SDS011;28708;52.224;6.924;2023-04-07T10:31:49;7.87;;;6.60;;
43086;SDS011;28708;52.224;6.924;2023-04-07T10:34:16;7.10;;;5.93;;
43086;SDS011;28708;52.224;6.924;2023-04-07T10:39:42;10.55;;;6.18;;
43086;SDS011;28708;52.224;6.924;2023-04-07T10:42:43;10.30;;;6.73;;
43086;SDS011;28708;52.224;6.924;2023-04-07T10:45:11;9.57;;;6.97;;
43086;SDS011;28708;52.224;6.924;2023-04-07T10:50:22;8.57;;;6.80;;
43086;SDS011;28708;52.224;6.924;2023-04-07T10:53:01;9.07;;;7.03;;
43086;SDS011;28708;52.224;6.924;2023-04-07T10:55:35;10.70;;;8.27;;
43086;SDS011;28708;52.224;6.924;2023-04-07T10:58:18;9.65;;;7.78;;
43086;SDS011;28708;52.224;6.924;2023-04-07T11:03:26;10.40;;;7.27;;
43086;SDS011;28708;52.224;6.924;2023-04-07T11:08:31;9.83;;;7.73;;
43086;SDS011;28708;52.224;6.924;2023-04-07T11:13:23;9.17;;;7.57;;
43086;SDS011;28708;52.224;6.924;2023-04-07T11:15:49;11.60;;;7.87;;
43086;SDS011;28708;52.224;6.924;2023-04-07T11:18:17;12.93;;;8.47;;
43086;SDS011;28708;52.224;6.924;2023-04-07T11:20:45;9.20;;;7.00;;
43086;SDS011;28708;52.224;6.924;2023-04-07T11:23:18;10.60;;;7.33;;
43086;SDS011;28708;52.224;6.924;2023-04-07T11:25:46;8.43;;;6.73;;
43086;SDS011;28708;52.224;6.924;2023-04-07T11:28:13;8.87;;;6.90;;
43086;SDS011;28708;52.224;6.924;2023-04-07T11:30:43;9.93;;;7.93;;
43086;SDS011;28708;52.224;6.924;2023-04-07T11:33:13;9.83;;;7.60;;
43086;SDS011;28708;52.224;6.924;2023-04-07T11:35:49;10.15;;;7.50;;
43086;SDS011;28708;52.224;6.924;2023-04-07T11:38:20;10.32;;;7.50;;
43086;SDS011;28708;52.224;6.924;2023-04-07T11:40:47;8.83;;;7.30;;
43086;SDS011;28708;52.224;6.924;2023-04-07T11:46:06;9.63;;;7.63;;
43086;SDS011;28708;52.224;6.924;2023-04-07T11:48:39;10.90;;;8.37;;
43086;SDS011;28708;52.224;6.924;2023-04-07T11:51:20;10.93;;;8.30;;
43086;SDS011;28708;52.224;6.924;2023-04-07T11:53:53;10.33;;;6.90;;
43086;SDS011;28708;52.224;6.924;2023-04-07T11:56:20;9.17;;;6.90;;
43086;SDS011;28708;52.224;6.924;2023-04-07T11:58:46;8.53;;;6.73;;
43086;SDS011;28708;52.224;6.924;2023-04-07T12:01:16;9.67;;;7.50;;
43086;SDS011;28708;52.224;6.924;2023-04-07T12:03:58;9.73;;;6.50;;
43086;SDS011;28708;52.224;6.924;2023-04-07T12:06:32;9.97;;;7.70;;
43086;SDS011;28708;52.224;6.924;2023-04-07T12:09:00;9.47;;;6.70;;
43086;SDS011;28708;52.224;6.924;2023-04-07T12:11:26;8.43;;;6.90;;
43086;SDS011;28708;52.224;6.924;2023-04-07T12:13:52;11.53;;;8.10;;
43086;SDS011;28708;52.224;6.924;2023-04-07T12:16:19;9.70;;;6.87;;
43086;SDS011;28708;52.224;6.924;2023-04-07T12:18:45;9.07;;;7.07;;
43086;SDS011;28708;52.224;6.924;2023-04-07T12:21:11;9.23;;;7.13;;
43086;SDS011;28708;52.224;6.924;2023-04-07T12:23:37;9.30;;;6.90;;
43086;SDS011;28708;52.224;6.924;2023-04-07T12:26:02;9.07;;;6.73;;
43086;SDS011;28708;52.224;6.924;2023-04-07T12:28:28;8.63;;;5.83;;
43086;SDS011;28708;52.224;6.924;2023-04-07T12:30:55;6.97;;;5.30;;
43086;SDS011;28708;52.224;6.924;2023-04-07T12:33:20;9.63;;;6.67;;
43086;SDS011;28708;52.224;6.924;2023-04-07T12:35:46;10.90;;;6.83;;
43086;SDS011;28708;52.224;6.924;2023-04-07T12:38:12;7.37;;;5.93;;
43086;SDS011;28708;52.224;6.924;2023-04-07T12:40:38;8.17;;;5.90;;
43086;SDS011;28708;52.224;6.924;2023-04-07T12:43:04;6.97;;;5.70;;
43086;SDS011;28708;52.224;6.924;2023-04-07T12:45:30;7.73;;;6.20;;
43086;SDS011;28708;52.224;6.924;2023-04-07T12:47:56;8.83;;;6.90;;
43086;SDS011;28708;52.224;6.924;2023-04-07T12:50:23;7.73;;;6.43;;
43086;SDS011;28708;52.224;6.924;2023-04-07T12:52:52;8.27;;;6.20;;
43086;SDS011;28708;52.224;6.924;2023-04-07T12:55:19;8.60;;;6.03;;
43086;SDS011;28708;52.224;6.924;2023-04-07T12:57:45;9.37;;;7.03;;
43086;SDS011;28708;52.224;6.924;2023-04-07T13:00:11;11.13;;;7.07;;
43086;SDS011;28708;52.224;6.924;2023-04-07T13:02:38;8.20;;;6.40;;
43086;SDS011;28708;52.224;6.924;2023-04-07T13:05:03;8.37;;;5.70;;
43086;SDS011;28708;52.224;6.924;2023-04-07T13:07:29;7.00;;;5.40;;
43086;SDS011;28708;52.224;6.924;2023-04-07T13:09:55;8.13;;;5.57;;
43086;SDS011;28708;52.224;6.924;2023-04-07T13:12:21;6.83;;;5.37;;
43086;SDS011;28708;52.224;6.924;2023-04-07T13:14:48;7.80;;;5.63;;
43086;SDS011;28708;52.224;6.924;2023-04-07T13:17:13;6.60;;;5.20;;
43086;SDS011;28708;52.224;6.924;2023-04-07T13:19:39;7.77;;;4.97;;
43086;SDS011;28708;52.224;6.924;2023-04-07T13:22:05;6.90;;;5.30;;
43086;SDS011;28708;52.224;6.924;2023-04-07T13:24:31;7.27;;;5.03;;
43086;SDS011;28708;52.224;6.924;2023-04-07T13:26:57;6.23;;;4.57;;
43086;SDS011;28708;52.224;6.924;2023-04-07T13:29:23;5.90;;;4.50;;
43086;SDS011;28708;52.224;6.924;2023-04-07T13:31:49;6.93;;;4.07;;
43086;SDS011;28708;52.224;6.924;2023-04-07T13:34:15;5.67;;;3.97;;
43086;SDS011;28708;52.224;6.924;2023-04-07T13:36:41;4.93;;;3.33;;
43086;SDS011;28708;52.224;6.924;2023-04-07T13:39:07;6.03;;;3.70;;
43086;SDS011;28708;52.224;6.924;2023-04-07T13:41:33;5.87;;;3.90;;
43086;SDS011;28708;52.224;6.924;2023-04-07T13:43:59;5.47;;;3.70;;
43086;SDS011;28708;52.224;6.924;2023-04-07T13:46:25;5.07;;;3.93;;
43086;SDS011;28708;52.224;6.924;2023-04-07T13:48:52;5.73;;;4.13;;
43086;SDS011;28708;52.224;6.924;2023-04-07T13:51:17;5.77;;;4.30;;
43086;SDS011;28708;52.224;6.924;2023-04-07T13:53:44;6.83;;;4.70;;
43086;SDS011;28708;52.224;6.924;2023-04-07T13:56:09;7.73;;;4.77;;
43086;SDS011;28708;52.224;6.924;2023-04-07T13:58:36;5.67;;;4.33;;
43086;SDS011;28708;52.224;6.924;2023-04-07T14:01:02;6.63;;;4.80;;
43086;SDS011;28708;52.224;6.924;2023-04-07T14:03:28;7.03;;;5.23;;
43086;SDS011;28708;52.224;6.924;2023-04-07T14:05:54;6.03;;;4.43;;
43086;SDS011;28708;52.224;6.924;2023-04-07T14:08:24;7.23;;;4.90;;
43086;SDS011;28708;52.224;6.924;2023-04-07T14:10:50;7.57;;;4.90;;
43086;SDS011;28708;52.224;6.924;2023-04-07T14:13:16;6.80;;;4.93;;
43086;SDS011;28708;52.224;6.924;2023-04-07T14:15:42;8.80;;;5.20;;
43086;SDS011;28708;52.224;6.924;2023-04-07T14:18:07;6.30;;;4.90;;
43086;SDS011;28708;52.224;6.924;2023-04-07T14:20:33;9.27;;;7.07;;
43086;SDS011;28708;52.224;6.924;2023-04-07T14:22:59;6.37;;;4.33;;
43086;SDS011;28708;52.224;6.924;2023-04-07T14:25:25;8.17;;;5.87;;
43086;SDS011;28708;52.224;6.924;2023-04-07T14:27:51;7.63;;;4.87;;
43086;SDS011;28708;52.224;6.924;2023-04-07T14:30:18;9.83;;;5.70;;
43086;SDS011;28708;52.224;6.924;2023-04-07T14:32:43;6.10;;;4.30;;
43086;SDS011;28708;52.224;6.924;2023-04-07T14:35:09;5.13;;;3.83;;
43086;SDS011;28708;52.224;6.924;2023-04-07T14:37:35;9.07;;;5.40;;
43086;SDS011;28708;52.224;6.924;2023-04-07T14:40:04;9.77;;;5.93;;
43086;SDS011;28708;52.224;6.924;2023-04-07T14:42:31;12.03;;;5.77;;
43086;SDS011;28708;52.224;6.924;2023-04-07T14:44:58;20.23;;;8.80;;
43086;SDS011;28708;52.224;6.924;2023-04-07T14:47:24;7.23;;;3.90;;
43086;SDS011;28708;52.224;6.924;2023-04-07T14:49:51;10.83;;;6.10;;
43086;SDS011;28708;52.224;6.924;2023-04-07T14:52:16;4.63;;;3.47;;
43086;SDS011;28708;52.224;6.924;2023-04-07T14:54:42;6.63;;;3.67;;
43086;SDS011;28708;52.224;6.924;2023-04-07T14:57:08;5.33;;;3.77;;
43086;SDS011;28708;52.224;6.924;2023-04-07T14:59:33;6.30;;;4.40;;
43086;SDS011;28708;52.224;6.924;2023-04-07T15:01:59;6.07;;;4.10;;
43086;SDS011;28708;52.224;6.924;2023-04-07T15:04:25;7.87;;;4.50;;
43086;SDS011;28708;52.224;6.924;2023-04-07T15:06:50;6.20;;;4.00;;
43086;SDS011;28708;52.224;6.924;2023-04-07T15:09:16;8.13;;;5.30;;